Flight Track Log - Related Links

Times and Time Zones

All times are in EDT time to prevent confusion due to time zone crossing. See the N119BJ flight status page for this flight to view local times or setup timezone preferences in your user account.


Time Position Orientation Groundspeed Altitude Reporting Facility
EDT Latitude Longitude Course Direction KTS MPH feet Rate Location/Type
Fri 11:47:02 AM 41.0500 -73.7167 21° North 105 121 1,700  Level New York TRACON
Fri 11:48:02 AM 41.0667 -73.7500 304° West 121 139 2,300 600 Climbing New York TRACON
Fri 11:49:02 AM 41.0833 -73.7833 304° West 125 144 2,900 550 Climbing New York TRACON
Fri 11:50:02 AM 41.1000 -73.8167 304° West 125 144 3,400 550 Climbing New York TRACON
Fri 11:51:02 AM 41.1333 -73.8333 339° North 128 147 4,000 700 Climbing New York TRACON
Fri 11:52:00 AM 41.2055 -73.6139 21° North  Level FlightAware Approximate
Fri 11:52:02 AM 41.1500 -73.8000 56° Northeast 134 154 4,800  Level New York TRACON
Fri 11:53:02 AM 41.1833 -73.7667 37° Northeast 140 161 5,100 150 Climbing New York TRACON
Fri 11:54:02 AM 41.2000 -73.7167 66° East 139 160 5,100  Level New York TRACON
Fri 11:55:02 AM 41.2167 -73.6833 56° Northeast 138 159 5,100  Level New York TRACON
Fri 11:56:02 AM 41.2500 -73.6333 48° Northeast 142 163 5,100  Level New York TRACON
Fri 11:57:02 AM 41.2667 -73.6000 56° Northeast 143 165 5,100  Level New York TRACON
Fri 11:58:02 AM 41.2833 -73.5500 66° East 149 171 5,100  Level New York TRACON
Fri 11:59:02 AM 41.2667 -73.5000 114° Southeast 153 176 5,100  Level New York TRACON
Fri 12:00:02 PM 41.2667 -73.4500 90° East 150 173 5,100  Level New York TRACON
Fri 12:01:02 PM 41.2833 -73.4000 66° East 144 166 5,100  Level New York TRACON
Fri 12:02:02 PM 41.3000 -73.3500 66° East 140 161 5,100 -50 Level New York TRACON
Fri 12:03:02 PM 41.3167 -73.3000 66° East 144 166 5,000 -250 Descending New York TRACON
Fri 12:04:02 PM 41.3333 -73.2500 66° East 150 173 4,600 -450 Descending New York TRACON
Fri 12:05:02 PM 41.3500 -73.2000 66° East 158 182 4,100 -500 Descending New York TRACON
Fri 12:06:02 PM 41.3333 -73.1667 124° Southeast 146 168 3,600 -450 Descending New York TRACON
Fri 12:07:02 PM 41.2833 -73.1667 180° South 147 169 3,200 -250 Descending New York TRACON
Fri 12:08:02 PM 41.2833 -73.1167 90° East 144 166 3,100 -50 Descending New York TRACON
Fri 12:09:02 PM 41.3000 -73.1000 37° Northeast 121 139 3,100 50 Level New York TRACON
Fri 12:10:02 PM 41.3333 -73.1000 360° North 118 136 3,200 -238 Climbing New York TRACON
Fri 12:11:08 PM 41.3667 -73.1167 339° North 105 121 2,600 -524 Descending New York TRACON
Fri 12:12:08 PM 41.4000 -73.1167 360° North 104 120 2,100 -450 Descending New York TRACON
Fri 12:13:08 PM 41.4167 -73.1167 360° North 105 121 1,700 -400 Descending New York TRACON
Fri 12:14:08 PM 41.4500 -73.1333 339° North 110 127 1,300 -400 Descending New York TRACON

Login

Don't have an account? Register now (free) for customized features, flight alerts, and more!